Rochester/St. Mary\'s Hospita, MN

3:04 AM CDT on July 20, 2018 (GMT -0500)
Rochester/St. Mary\'s Hospita

Weather History for K9MN - October, 2017

Change the Weather History Date:

Tuesday, October 17, 2017

  Actual Average (WUND) Record (WUND)
Temperature  
Mean Temperature 60 °F -  
Max Temperature 73 °F - - (-1)
Min Temperature 48 °F - - (-1)
Degree Days  
Heating Degree Days 4    
Growing Degree Days 10 (Base 50)    
Moisture  
Dew Point 41 °F    
Average Humidity 51    
Maximum Humidity 73    
Minimum Humidity 29    
Precipitation  
Precipitation 0.00 in - - ()
Sea Level Pressure  
Sea Level Pressure 30.01 in    
Wind  
Wind Speed 10 mph (SSW)    
Max Wind Speed 20 mph    
Max Gust Speed 29 mph    
Visibility 10 miles    
Events      
Averages and records for this station are not official NWS values.
T = Trace of Precipitation, MM = Missing Value Source: NWS Daily Summary

Daily Weather History Graph

Daily Weather History Graph

Search for Another Location

Airport or City:

Astronomy

Oct. 17, 2017 Rise Set
Actual Time 7:27 AM CDT 6:22 PM CDT
Civil Twilight 6:58 AM CDT 6:51 PM CDT
Nautical Twilight 6:24 AM CDT 7:24 PM CDT
Astronomical Twilight 5:51 AM CDT 7:58 PM CDT
Moon 4:58 AM CDT (10/17) 5:45 PM CDT (10/17)
Length of Visible Light 11h 53m
Length of Day
10h 54m
Waning Crescent, 5% of the Moon is Illuminated
Oct 17
Waning Crescent
Oct 19
New
Oct 27
First Quarter
Nov 4
Full
Nov 10
Last Quarter

Hourly Weather History & Observations

Time (CDT) Temp. Dew Point Humidity Pressure Visibility Wind Dir Wind Speed Gust Speed Precip Events Conditions
12:12 AM 57.2 °F 37.2 °F 47% 30.00 in 10.0 mi SSW 19.6 mph 27.6 mph N/A   Clear
12:32 AM 57.0 °F 37.4 °F 48% 30.00 in 10.0 mi SSW 16.1 mph 24.2 mph N/A   Clear
12:51 AM 56.8 °F 37.6 °F 49% 30.00 in 10.0 mi SW 15.0 mph 25.3 mph N/A   Clear
1:12 AM 56.3 °F 37.9 °F 50% 30.00 in 10.0 mi SSW 18.4 mph 28.8 mph N/A   Clear
1:32 AM 55.8 °F 38.3 °F 52% 30.00 in 10.0 mi SW 16.1 mph 25.3 mph N/A   Clear
1:51 AM 55.4 °F 38.3 °F 53% 30.00 in 10.0 mi SW 15.0 mph 26.5 mph N/A   Clear
2:12 AM 54.7 °F 38.5 °F 54% 30.01 in 10.0 mi SW 13.8 mph 23.0 mph N/A   Clear
2:32 AM 54.1 °F 38.7 °F 56% 30.02 in 10.0 mi SW 12.7 mph 18.4 mph N/A   Clear
2:51 AM 54.0 °F 38.7 °F 56% 30.01 in 10.0 mi SW 13.8 mph 23.0 mph N/A   Clear
3:12 AM 53.6 °F 38.8 °F 57% 30.02 in 10.0 mi SW 11.5 mph 19.6 mph N/A   Clear
3:32 AM 52.7 °F 39.2 °F 60% 30.02 in 10.0 mi SW 4.6 mph - N/A   Clear
3:51 AM 52.0 °F 39.2 °F 62% 30.02 in 10.0 mi WSW 8.1 mph - N/A   Clear
4:12 AM 52.0 °F 39.2 °F 62% 30.02 in 10.0 mi WSW 9.2 mph 16.1 mph N/A   Clear
4:32 AM 51.8 °F 39.4 °F 63% 30.02 in 10.0 mi WSW 4.6 mph - N/A   Clear
4:51 AM 51.6 °F 39.4 °F 63% 30.02 in 10.0 mi WSW 6.9 mph - N/A   Clear
5:12 AM 51.1 °F 39.4 °F 64% 30.03 in 10.0 mi WSW 9.2 mph - N/A   Clear
5:32 AM 50.9 °F 39.4 °F 65% 30.03 in 10.0 mi SW 8.1 mph - N/A   Clear
5:51 AM 50.9 °F 39.4 °F 65% 30.03 in 10.0 mi SSW 5.8 mph - N/A   Clear
6:12 AM 50.5 °F 39.6 °F 66% 30.03 in 10.0 mi SSE 3.5 mph - N/A   Clear
6:32 AM 50.0 °F 39.6 °F 67% 30.04 in 10.0 mi SSW 3.5 mph - N/A   Clear
6:51 AM 49.6 °F 39.6 °F 68% 30.04 in 10.0 mi Calm Calm - N/A   Clear
7:12 AM 49.1 °F 39.6 °F 70% 30.04 in 10.0 mi Calm Calm - N/A   Clear
7:32 AM 48.6 °F 39.6 °F 71% 30.04 in 10.0 mi SSE 5.8 mph - N/A   Clear
7:51 AM 48.7 °F 39.9 °F 72% 30.05 in 10.0 mi Calm Calm - N/A   Clear
8:12 AM 48.6 °F 40.1 °F 73% 30.04 in 10.0 mi South 3.5 mph - N/A   Clear
8:32 AM 49.6 °F 40.1 °F 70% 30.05 in 10.0 mi SSW 3.5 mph - N/A   Clear
8:51 AM 50.9 °F 40.3 °F 67% 30.05 in 10.0 mi South 3.5 mph - N/A   Clear
9:12 AM 52.0 °F 40.5 °F 65% 30.05 in 10.0 mi SSW 4.6 mph - N/A   Clear
9:32 AM 54.1 °F 41.0 °F 61% 30.05 in 10.0 mi SSW 4.6 mph - N/A   Clear
9:51 AM 55.4 °F 40.8 °F 58% 30.05 in 10.0 mi SSW 5.8 mph - N/A   Clear
10:12 AM 55.9 °F 40.8 °F 57% 30.05 in 10.0 mi SSW 6.9 mph - N/A   Clear
10:32 AM 57.4 °F 41.2 °F 55% 30.06 in 10.0 mi SSW 4.6 mph - N/A   Clear
10:51 AM 59.5 °F 41.7 °F 52% 30.06 in 10.0 mi SW 3.5 mph - N/A   Clear
11:12 AM 61.0 °F 41.9 °F 49% 30.06 in 10.0 mi Calm Calm - N/A   Clear
11:32 AM 63.0 °F 42.1 °F 46% 30.06 in 10.0 mi Calm Calm - N/A   Clear
11:52 AM 63.9 °F 41.9 °F 45% 30.06 in 10.0 mi WSW 3.5 mph - N/A   Clear
12:12 PM 64.4 °F 42.3 °F 44% 30.06 in 10.0 mi Calm Calm - N/A   Clear
12:32 PM 66.4 °F 42.6 °F 42% 30.06 in 10.0 mi Calm Calm - N/A   Clear
12:52 PM 67.1 °F 41.9 °F 40% 30.05 in 10.0 mi SSE 6.9 mph - N/A   Clear
1:12 PM 68.0 °F 41.7 °F 38% 30.03 in 10.0 mi South 9.2 mph - N/A   Clear
1:32 PM 69.1 °F 41.9 °F 37% 30.02 in 10.0 mi SSE 8.1 mph - N/A   Clear
1:52 PM 70.3 °F 41.7 °F 35% 30.02 in 10.0 mi South 10.4 mph - N/A   Clear
2:12 PM 71.1 °F 41.0 °F 34% 30.00 in 10.0 mi SSE 11.5 mph 16.1 mph N/A   Clear
2:32 PM 71.6 °F 41.2 °F 33% 30.00 in 10.0 mi South 6.9 mph - N/A   Clear
2:52 PM 72.7 °F 41.5 °F 32% 29.99 in 10.0 mi SW 6.9 mph - N/A   Clear
3:12 PM 72.7 °F 40.5 °F 31% 29.98 in 10.0 mi SW 6.9 mph - N/A   Clear
3:32 PM 72.9 °F 39.4 °F 30% 29.98 in 10.0 mi SSW 10.4 mph - N/A   Clear
3:52 PM 73.8 °F 39.9 °F 29% 29.98 in 10.0 mi SW 9.2 mph 16.1 mph N/A   Clear
4:12 PM 73.8 °F 39.7 °F 29% 29.97 in 10.0 mi SSW 5.8 mph - N/A   Clear
4:31 PM 73.4 °F 39.4 °F 29% 29.97 in 10.0 mi SW 5.8 mph 16.1 mph N/A   Clear
4:52 PM 72.5 °F 39.4 °F 30% 29.97 in 10.0 mi SSW 12.7 mph - N/A   Clear
5:12 PM 71.6 °F 41.4 °F 33% 29.97 in 10.0 mi South 8.1 mph 17.3 mph N/A   Clear
5:31 PM 70.9 °F 42.3 °F 36% 29.97 in 10.0 mi South 9.2 mph - N/A   Clear
5:52 PM 69.8 °F 42.4 °F 37% 29.97 in 10.0 mi South 8.1 mph - N/A   Clear
6:12 PM 68.2 °F 42.8 °F 40% 29.98 in 10.0 mi South 6.9 mph - N/A   Clear
6:31 PM 66.7 °F 42.8 °F 42% 29.98 in 10.0 mi South 8.1 mph - N/A   Clear
6:52 PM 65.8 °F 42.8 °F 43% 29.98 in 10.0 mi South 8.1 mph - N/A   Clear
7:12 PM 64.6 °F 43.0 °F 45% 29.99 in 10.0 mi South 8.1 mph - N/A   Clear
7:52 PM 63.0 °F 43.0 °F 48% 29.99 in 10.0 mi South 8.1 mph - N/A   Clear
8:12 PM 62.6 °F 42.8 °F 48% 29.99 in 10.0 mi South 9.2 mph - N/A   Clear
8:31 PM 61.7 °F 43.0 °F 50% 29.99 in 10.0 mi South 8.1 mph - N/A   Clear
8:52 PM 61.0 °F 43.0 °F 52% 29.98 in 10.0 mi South 9.2 mph - N/A   Clear
9:12 PM 61.3 °F 42.8 °F 51% 29.98 in 10.0 mi South 11.5 mph 16.1 mph N/A   Clear
9:31 PM 60.6 °F 43.0 °F 52% 29.98 in 10.0 mi South 8.1 mph - N/A   Clear
9:52 PM 60.1 °F 43.0 °F 53% 29.98 in 10.0 mi South 12.7 mph 19.6 mph N/A   Clear
10:12 PM 60.1 °F 42.8 °F 53% 29.98 in 10.0 mi South 13.8 mph 18.4 mph N/A   Clear
10:32 PM 59.5 °F 43.0 °F 54% 29.98 in 10.0 mi South 11.5 mph 19.6 mph N/A   Clear
10:52 PM 59.2 °F 43.0 °F 55% 29.98 in 10.0 mi South 13.8 mph 19.6 mph N/A   Clear
11:12 PM 59.0 °F 42.8 °F 55% 29.98 in 10.0 mi South 12.7 mph 18.4 mph N/A   Clear
11:32 PM 58.1 °F 42.8 °F 57% 29.98 in 10.0 mi South 12.7 mph 18.4 mph N/A   Clear
11:52 PM 57.7 °F 43.0 °F 58% 29.97 in 10.0 mi South 11.5 mph 18.4 mph N/A   Clear